createdAt,value
2023-05-08T00:00:45.565Z,100.0651
2023-05-08T00:01:53.532Z,100.2174
2023-05-08T00:03:01.691Z,100.5574
2023-05-08T00:04:09.882Z,100.4931
2023-05-08T00:05:17.692Z,100.7745
2023-05-08T00:06:25.786Z,101.0742
2023-05-08T00:07:33.822Z,101.0490
2023-05-08T00:08:41.744Z,100.6821
2023-05-08T00:09:49.924Z,100.5683
2023-05-08T00:10:58.112Z,100.5910
2023-05-08T00:12:06.125Z,100.5136
2023-05-08T00:13:14.102Z,100.3846
2023-05-08T00:14:22.037Z,100.7001
2023-05-08T00:15:30.229Z,100.2015
2023-05-08T00:16:38.510Z,100.0182
2023-05-08T00:17:46.456Z,100.8537
2023-05-08T00:18:54.483Z,100.3987
2023-05-08T00:20:02.373Z,100.1356
2023-05-08T00:21:10.631Z,100.5857
2023-05-08T00:22:18.648Z,101.2744
2023-05-08T00:23:26.739Z,100.7149
2023-05-08T00:24:34.747Z,100.8052
2023-05-08T00:25:42.626Z,101.4307
2023-05-08T00:26:50.828Z,101.3113
2023-05-08T00:27:58.875Z,101.2461
2023-05-08T00:29:07.036Z,100.4974
2023-05-08T00:30:15.022Z,100.4078
2023-05-08T00:31:23.102Z,100.0538
2023-05-08T00:32:31.170Z,100.3925
2023-05-08T00:33:39.203Z,100.9387
2023-05-08T00:34:47.282Z,101.5947
2023-05-08T00:35:55.262Z,101.5721
2023-05-08T00:37:03.372Z,101.5660
2023-05-08T00:38:11.439Z,101.2642
2023-05-08T00:39:19.601Z,101.3818
2023-05-08T00:40:27.408Z,102.0619
2023-05-08T00:41:35.592Z,101.3465
2023-05-08T00:42:43.634Z,102.1121
2023-05-08T00:43:51.729Z,102.2451
2023-05-08T00:44:59.735Z,101.9027
2023-05-08T00:46:07.720Z,101.4864
2023-05-08T00:47:15.903Z,101.6068
2023-05-08T00:48:24.067Z,101.3255
2023-05-08T00:49:31.959Z,101.6994
2023-05-08T00:50:40.208Z,102.1872
2023-05-08T00:51:48.125Z,102.4011
2023-05-08T00:52:56.333Z,102.4479
2023-05-08T00:54:04.198Z,102.3420
2023-05-08T00:55:12.334Z,102.2942
2023-05-08T00:56:20.324Z,102.0134
2023-05-08T00:57:28.432Z,101.6278
2023-05-08T00:58:36.561Z,101.6011
2023-05-08T00:59:44.485Z,101.8518
2023-05-08T01:00:52.551Z,101.2979
2023-05-08T01:02:00.652Z,100.8985
2023-05-08T01:03:08.827Z,100.7961
2023-05-08T01:04:16.728Z,101.0547
2023-05-08T01:05:24.816Z,101.6102
2023-05-08T01:06:32.866Z,101.8972
2023-05-08T01:07:40.929Z,102.6281
2023-05-08T01:08:49.209Z,102.2068
2023-05-08T01:09:57.158Z,102.0636
2023-05-08T01:11:05.063Z,102.4897
2023-05-08T01:12:13.176Z,103.2830
2023-05-08T01:13:21.230Z,103.6931
2023-05-08T01:14:29.178Z,103.1466
2023-05-08T01:15:37.376Z,102.8793
2023-05-08T01:16:45.238Z,103.2444
2023-05-08T01:17:53.481Z,103.0232
2023-05-08T01:19:01.616Z,102.9544
2023-05-08T01:20:09.626Z,102.7767
2023-05-08T01:21:17.589Z,102.6171
2023-05-08T01:22:25.802Z,102.2001
2023-05-08T01:23:33.715Z,102.5029
2023-05-08T01:24:42.040Z,102.6569
2023-05-08T01:25:49.738Z,102.5503
2023-05-08T01:26:57.887Z,102.2887
2023-05-08T01:28:06.067Z,102.5581
2023-05-08T01:29:14.007Z,103.0159
2023-05-08T01:30:22.046Z,103.1410
2023-05-08T01:31:30.179Z,102.7572
2023-05-08T01:32:38.209Z,102.7954
2023-05-08T01:33:46.317Z,102.2040
2023-05-08T01:34:54.282Z,101.6320
2023-05-08T01:36:02.312Z,101.3713
2023-05-08T01:37:10.341Z,101.2367
2023-05-08T01:38:18.546Z,101.3053
2023-05-08T01:39:26.559Z,101.4565
2023-05-08T01:40:34.615Z,101.8921
2023-05-08T01:41:42.603Z,101.7572
2023-05-08T01:42:50.638Z,101.4068
2023-05-08T01:43:58.777Z,101.3902
2023-05-08T01:45:06.805Z,101.2021
2023-05-08T01:46:14.898Z,102.4849
2023-05-08T01:47:22.972Z,102.7818
2023-05-08T01:48:30.885Z,102.4631
2023-05-08T01:49:39.042Z,102.1157
2023-05-08T01:50:47.128Z,102.4575
2023-05-08T01:51:55.091Z,102.2656
2023-05-08T01:53:03.257Z,102.2959
2023-05-08T01:54:11.138Z,102.7512
2023-05-08T01:55:19.298Z,102.8327
2023-05-08T01:56:27.370Z,102.9891
2023-05-08T01:57:35.401Z,103.1025
2023-05-08T01:58:43.474Z,103.2298
2023-05-08T01:59:51.454Z,103.8743
2023-05-08T02:00:59.608Z,104.4717
2023-05-08T02:02:07.772Z,104.8808
2023-05-08T02:03:15.788Z,104.6246
2023-05-08T02:04:23.853Z,104.1511
2023-05-08T02:05:31.858Z,103.7267
2023-05-08T02:06:39.874Z,103.7622
2023-05-08T02:07:47.936Z,103.8349
2023-05-08T02:08:56.030Z,103.2885
2023-05-08T02:10:04.091Z,102.2866
2023-05-08T02:11:12.300Z,102.2516
2023-05-08T02:12:20.158Z,102.0498
2023-05-08T02:13:28.285Z,101.5994
2023-05-08T02:14:36.381Z,102.1152
2023-05-08T02:15:44.510Z,102.4998
2023-05-08T02:16:52.512Z,102.1747
2023-05-08T02:18:00.507Z,102.6383
2023-05-08T02:19:08.548Z,102.4992
2023-05-08T02:20:16.608Z,102.2968
2023-05-08T02:21:24.634Z,102.6055
2023-05-08T02:22:32.720Z,102.8602
2023-05-08T02:23:40.809Z,103.0527
2023-05-08T02:24:48.844Z,103.5548
2023-05-08T02:25:56.898Z,103.3042
2023-05-08T02:27:04.951Z,103.4007
2023-05-08T02:28:12.854Z,103.2810
2023-05-08T02:29:21.005Z,103.2498
2023-05-08T02:30:29.143Z,103.5597
2023-05-08T02:31:37.053Z,104.1449
2023-05-08T02:32:45.268Z,104.1198
2023-05-08T02:33:53.173Z,104.2423
2023-05-08T02:35:03.517Z,103.8247
2023-05-08T02:36:09.463Z,103.4660
2023-05-08T02:37:17.504Z,102.9423
2023-05-08T02:38:25.540Z,102.7815
2023-05-08T02:39:33.609Z,103.1062
2023-05-08T02:40:41.842Z,102.8006
2023-05-08T02:41:49.747Z,102.5408
2023-05-08T02:42:57.792Z,102.2692
2023-05-08T02:44:05.850Z,102.3030
2023-05-08T02:45:13.919Z,102.6981
2023-05-08T02:46:22.017Z,102.3736
2023-05-08T02:47:30.005Z,102.0527
2023-05-08T02:48:38.142Z,102.1865
2023-05-08T02:49:46.120Z,102.0701
2023-05-08T02:50:54.064Z,101.8394
2023-05-08T02:52:02.331Z,102.0954
2023-05-08T02:53:10.297Z,101.5856
2023-05-08T02:54:18.351Z,101.0319
2023-05-08T02:55:26.616Z,100.8879
2023-05-08T02:56:34.457Z,100.8313
2023-05-08T02:57:42.573Z,101.0494
2023-05-08T02:58:50.628Z,100.6046
2023-05-08T02:59:58.664Z,101.1625
2023-05-08T03:01:06.792Z,101.6793
2023-05-08T03:02:14.810Z,102.0155
2023-05-08T03:03:23.103Z,102.0435
2023-05-08T03:04:30.838Z,101.9519
2023-05-08T03:05:38.779Z,101.5380
2023-05-08T03:06:46.940Z,101.2171
2023-05-08T03:07:55.026Z,100.7410
2023-05-08T03:09:03.168Z,100.5804
2023-05-08T03:10:11.233Z,100.6643
2023-05-08T03:11:19.180Z,100.5148
2023-05-08T03:12:27.622Z,101.0431
2023-05-08T03:13:35.205Z,100.8370
2023-05-08T03:14:43.433Z,100.0946
2023-05-08T03:15:51.492Z,99.5241
2023-05-08T03:16:59.496Z,99.0843
2023-05-08T03:18:07.544Z,99.1548
2023-05-08T03:19:15.638Z,99.2411
2023-05-08T03:20:23.655Z,99.8502
2023-05-08T03:21:31.834Z,100.4535
2023-05-08T03:22:39.796Z,100.1392
2023-05-08T03:23:47.836Z,100.0764
2023-05-08T03:24:55.814Z,100.5580
2023-05-08T03:26:03.931Z,100.6250
2023-05-08T03:27:12.092Z,100.6648
2023-05-08T03:28:19.919Z,100.7206
2023-05-08T03:29:28.138Z,100.4731
2023-05-08T03:30:36.192Z,100.6023
2023-05-08T03:31:44.498Z,101.1505
2023-05-08T03:32:52.335Z,101.4529
2023-05-08T03:34:00.420Z,101.5869
2023-05-08T03:35:08.471Z,101.2219
2023-05-08T03:36:16.466Z,101.1112
2023-05-08T03:37:24.540Z,100.9923
2023-05-08T03:38:32.569Z,101.7921
2023-05-08T03:39:40.506Z,101.6799
2023-05-08T03:40:48.751Z,102.0008
2023-05-08T03:41:56.937Z,102.1356
2023-05-08T03:43:04.802Z,102.3851
2023-05-08T03:44:12.848Z,102.4683
2023-05-08T03:45:20.787Z,101.3520
2023-05-08T03:46:29.030Z,100.8078
2023-05-08T03:47:37.056Z,100.3591
2023-05-08T03:48:45.054Z,100.1566
2023-05-08T03:49:53.246Z,100.2051
2023-05-08T03:51:01.098Z,100.9984
2023-05-08T03:52:09.307Z,101.1991
2023-05-08T03:53:17.301Z,100.9013
2023-05-08T03:54:25.361Z,100.4517
2023-05-08T03:55:33.481Z,100.3756
2023-05-08T03:56:41.340Z,100.5578
2023-05-08T03:57:49.544Z,100.9612
2023-05-08T03:58:57.575Z,100.9195
2023-05-08T04:00:05.711Z,100.9957
2023-05-08T04:01:13.862Z,101.5491
2023-05-08T04:02:22.068Z,102.0281
2023-05-08T04:03:29.976Z,101.8119
2023-05-08T04:04:37.948Z,101.5333
2023-05-08T04:05:46.017Z,100.9678
2023-05-08T04:06:54.098Z,100.9067
2023-05-08T04:08:02.159Z,101.1033
2023-05-08T04:09:10.253Z,100.6581
2023-05-08T04:10:18.226Z,101.1610
2023-05-08T04:11:26.289Z,101.3605
2023-05-08T04:12:34.337Z,102.2779
2023-05-08T04:13:42.571Z,102.6105
2023-05-08T04:14:50.360Z,102.4403
2023-05-08T04:15:58.525Z,102.3828
2023-05-08T04:17:06.792Z,102.3591
2023-05-08T04:18:14.637Z,102.2449
2023-05-08T04:19:22.817Z,101.8460
2023-05-08T04:20:30.657Z,101.3705
2023-05-08T04:21:38.833Z,101.0936
2023-05-08T04:22:46.902Z,101.1178
2023-05-08T04:23:54.931Z,100.7026
2023-05-08T04:25:03.035Z,101.7463
2023-05-08T04:26:11.042Z,101.3605
2023-05-08T04:27:19.174Z,100.9380
2023-05-08T04:28:27.028Z,100.3229
2023-05-08T04:29:35.323Z,100.3208
2023-05-08T04:30:43.274Z,100.3852
2023-05-08T04:31:51.374Z,99.8106
2023-05-08T04:32:59.741Z,100.0504
2023-05-08T04:34:07.439Z,99.7444
2023-05-08T04:35:15.512Z,100.0480
2023-05-08T04:36:23.531Z,101.0847
2023-05-08T04:37:31.581Z,100.8981
2023-05-08T04:38:39.978Z,101.0668
2023-05-08T04:39:47.612Z,100.5531
2023-05-08T04:40:55.909Z,100.1131
2023-05-08T04:42:03.806Z,100.5557
2023-05-08T04:43:12.101Z,100.9320
2023-05-08T04:44:20.006Z,100.4335
2023-05-08T04:45:27.976Z,100.3758
2023-05-08T04:46:36.093Z,100.8845
2023-05-08T04:47:44.098Z,100.8709
2023-05-08T04:48:52.165Z,100.8127
2023-05-08T04:50:02.528Z,100.8075
2023-05-08T04:51:13.132Z,101.2026
2023-05-08T04:52:21.173Z,101.5936
2023-05-08T04:53:29.194Z,101.1935
2023-05-08T04:54:37.298Z,100.8993
2023-05-08T04:55:45.422Z,101.6641
2023-05-08T04:56:53.409Z,102.1019
2023-05-08T04:58:01.356Z,102.0738
2023-05-08T04:59:09.495Z,102.6734
2023-05-08T05:00:17.591Z,102.8251
2023-05-08T05:01:25.629Z,102.1261
2023-05-08T05:02:33.663Z,101.9189
2023-05-08T05:03:41.802Z,102.0267
2023-05-08T05:04:49.793Z,101.9137
2023-05-08T05:05:57.736Z,101.6827
2023-05-08T05:07:05.876Z,101.5105
2023-05-08T05:08:14.144Z,101.3949
2023-05-08T05:09:21.965Z,100.9423
2023-05-08T05:10:30.196Z,100.7488
2023-05-08T05:11:37.980Z,100.3514
2023-05-08T05:12:46.187Z,100.2397
2023-05-08T05:13:54.191Z,100.3297
2023-05-08T05:15:02.253Z,100.5704
2023-05-08T05:16:10.382Z,100.6206
2023-05-08T05:17:18.223Z,101.2911
2023-05-08T05:18:26.483Z,101.1562
2023-05-08T05:19:34.470Z,101.3429
2023-05-08T05:20:42.678Z,101.4479
2023-05-08T05:21:50.607Z,101.5908
2023-05-08T05:22:58.600Z,101.5679
2023-05-08T05:24:06.667Z,101.4838
2023-05-08T05:25:15.008Z,100.8916
2023-05-08T05:26:22.871Z,100.9750
2023-05-08T05:27:30.860Z,101.0536
2023-05-08T05:28:38.911Z,101.2557
2023-05-08T05:29:46.971Z,100.6851
2023-05-08T05:30:55.040Z,101.1431
2023-05-08T05:32:02.977Z,102.2044
2023-05-08T05:33:11.170Z,102.5255
2023-05-08T05:34:19.170Z,102.1594
2023-05-08T05:35:27.267Z,102.1163
2023-05-08T05:36:35.316Z,101.9730
2023-05-08T05:37:43.293Z,101.6479
2023-05-08T05:38:51.461Z,101.4462
2023-05-08T05:39:59.596Z,101.5374
2023-05-08T05:41:07.592Z,101.8434
2023-05-08T05:42:15.602Z,101.8303
2023-05-08T05:43:23.570Z,101.4988
2023-05-08T05:44:31.755Z,101.2878
2023-05-08T05:45:39.744Z,101.7826
2023-05-08T05:46:47.980Z,101.6284
2023-05-08T05:47:56.144Z,101.4371
2023-05-08T05:49:03.798Z,101.5920
2023-05-08T05:50:12.338Z,102.0434
2023-05-08T05:51:20.069Z,101.7395
2023-05-08T05:52:28.193Z,101.8044
2023-05-08T05:53:36.251Z,101.9130
2023-05-08T05:54:44.239Z,102.5189
2023-05-08T05:55:52.243Z,102.7789
2023-05-08T05:57:00.300Z,102.2996
2023-05-08T05:58:08.446Z,101.7676
2023-05-08T05:59:16.437Z,101.5739
2023-05-08T06:00:24.508Z,101.0680
2023-05-08T06:01:32.533Z,101.2431
2023-05-08T06:02:40.801Z,101.8080
2023-05-08T06:03:48.744Z,102.5513
2023-05-08T06:04:56.958Z,102.5531
2023-05-08T06:06:04.776Z,101.8799
2023-05-08T06:07:12.862Z,101.3497
2023-05-08T06:08:21.048Z,101.2802
2023-05-08T06:09:28.956Z,101.8805
2023-05-08T06:10:36.985Z,102.0193
2023-05-08T06:11:45.080Z,101.8659
2023-05-08T06:12:53.043Z,101.1883
2023-05-08T06:14:01.197Z,100.7698
2023-05-08T06:15:09.256Z,100.7803
2023-05-08T06:16:17.388Z,100.7629
2023-05-08T06:17:25.392Z,101.0349
2023-05-08T06:18:33.586Z,100.8802
2023-05-08T06:19:41.510Z,101.5719
2023-05-08T06:20:49.411Z,101.9281
2023-05-08T06:21:57.599Z,101.3321
2023-05-08T06:23:05.733Z,100.5008
2023-05-08T06:24:13.694Z,100.1611
2023-05-08T06:25:21.752Z,100.3277
2023-05-08T06:26:29.820Z,99.8150
2023-05-08T06:27:37.845Z,99.4078
2023-05-08T06:28:46.113Z,99.6088
2023-05-08T06:29:54.010Z,99.0554
2023-05-08T06:31:02.085Z,98.4419
2023-05-08T06:32:10.069Z,97.1962
2023-05-08T06:33:18.180Z,97.2934
2023-05-08T06:34:26.198Z,97.5598
2023-05-08T06:35:34.241Z,97.5475
2023-05-08T06:36:42.341Z,97.6420
2023-05-08T06:37:50.473Z,97.2605
2023-05-08T06:38:58.350Z,97.5828
2023-05-08T06:40:11.959Z,97.9563
2023-05-08T06:41:19.300Z,97.9902
2023-05-08T06:42:27.457Z,98.2002
2023-05-08T06:43:35.581Z,98.1818
2023-05-08T06:44:43.453Z,97.8286
2023-05-08T06:45:51.641Z,98.1156
2023-05-08T06:46:59.556Z,98.4324
2023-05-08T06:48:07.893Z,98.3822
2023-05-08T06:49:15.972Z,98.0868
2023-05-08T06:50:23.847Z,97.7492
2023-05-08T06:51:31.889Z,97.5839
2023-05-08T06:52:39.959Z,96.7992
2023-05-08T06:53:48.043Z,97.3134
2023-05-08T06:54:56.074Z,97.0651
2023-05-08T06:56:04.091Z,97.3054
2023-05-08T06:57:13.744Z,97.2460
2023-05-08T06:58:20.350Z,96.7009
2023-05-08T06:59:28.346Z,96.4642
2023-05-08T07:00:36.322Z,96.1311
2023-05-08T07:01:44.353Z,96.1464
2023-05-08T07:02:52.495Z,96.4685
2023-05-08T07:04:00.563Z,96.4941
2023-05-08T07:05:08.686Z,96.5704
2023-05-08T07:06:16.596Z,96.2052
2023-05-08T07:07:24.817Z,96.2849
2023-05-08T07:08:32.793Z,96.4688
2023-05-08T07:09:40.790Z,96.4586
2023-05-08T07:10:48.832Z,95.6633
2023-05-08T07:11:56.890Z,95.0635
2023-05-08T07:13:04.893Z,94.1957
2023-05-08T07:14:13.032Z,93.4622
2023-05-08T07:15:25.952Z,92.9490
2023-05-08T07:16:33.992Z,94.6995
2023-05-08T07:17:42.068Z,95.2204
2023-05-08T07:18:50.095Z,95.4729
2023-05-08T07:19:58.152Z,95.6621
2023-05-08T07:21:06.206Z,96.1988
2023-05-08T07:22:14.268Z,95.9224
2023-05-08T07:23:22.319Z,96.5409
2023-05-08T07:24:30.376Z,95.7702
2023-05-08T07:25:38.426Z,95.7781
2023-05-08T07:26:46.474Z,95.5908
2023-05-08T07:27:54.555Z,96.3916
2023-05-08T07:29:02.653Z,95.6753
2023-05-08T07:30:10.800Z,94.6677
2023-05-08T07:31:18.786Z,94.5186
2023-05-08T07:32:26.778Z,94.8348
2023-05-08T07:33:34.779Z,94.3788
2023-05-08T07:34:42.910Z,93.9090
2023-05-08T07:35:51.091Z,94.0007
2023-05-08T07:36:58.943Z,94.3696
2023-05-08T07:38:07.036Z,94.4355
2023-05-08T11:19:38.859Z,65.4090
2023-05-08T11:20:46.982Z,70.0582
2023-05-08T11:21:54.919Z,71.9790
2023-05-08T11:23:03.091Z,72.4941
2023-05-08T11:24:11.415Z,73.7580
2023-05-08T11:25:19.272Z,76.4654
2023-05-08T11:26:27.291Z,76.6639
2023-05-08T11:27:35.363Z,78.8768
2023-05-08T11:28:43.438Z,79.6175
2023-05-08T11:29:51.459Z,79.3662
2023-05-08T11:30:59.644Z,78.7789
2023-05-08T11:32:07.675Z,79.1380
2023-05-08T11:33:15.678Z,79.1823
2023-05-08T11:34:23.656Z,79.1136
2023-05-08T11:35:31.695Z,74.2078
2023-05-08T11:36:39.778Z,75.1612
2023-05-08T11:37:47.898Z,76.3366
2023-05-08T11:38:56.395Z,76.1666
2023-05-08T11:40:04.098Z,75.4251
2023-05-08T11:41:12.083Z,76.2973
2023-05-08T11:42:20.303Z,75.2084
2023-05-08T11:43:28.195Z,74.4392
2023-05-08T11:44:36.258Z,72.1290
2023-05-08T11:45:44.499Z,71.9853
2023-05-08T11:46:52.433Z,72.4162
2023-05-08T11:48:00.528Z,69.8061
2023-05-08T11:49:08.428Z,71.1447
2023-05-08T11:50:16.700Z,68.7415
2023-05-08T11:51:24.539Z,70.9123
2023-05-08T11:52:32.750Z,68.8308
2023-05-08T11:53:40.822Z,68.8507
2023-05-08T11:54:48.928Z,71.0092
2023-05-08T11:55:56.945Z,70.1000
2023-05-08T11:57:05.021Z,73.4195
2023-05-08T11:58:13.107Z,73.6772
2023-05-08T11:59:21.051Z,72.2314
2023-05-08T12:00:29.245Z,70.3673
2023-05-08T12:01:37.293Z,72.6378
2023-05-08T12:02:45.374Z,73.4913
2023-05-08T12:03:53.509Z,70.9601
2023-05-08T12:05:01.368Z,67.6521
2023-05-08T12:06:09.418Z,67.6460
2023-05-08T12:07:17.559Z,69.1075
2023-05-08T12:08:25.751Z,67.9429
2023-05-08T12:09:33.662Z,68.0637
2023-05-08T12:10:41.743Z,70.7254
2023-05-08T12:11:49.858Z,69.0834
2023-05-08T12:12:57.905Z,68.9613
2023-05-08T12:14:06.034Z,68.2257
2023-05-08T12:15:13.992Z,66.8833
2023-05-08T12:16:22.038Z,70.7780
2023-05-08T12:17:30.195Z,67.9809
2023-05-08T12:18:39.792Z,66.9526
2023-05-08T12:19:51.047Z,67.2695
2023-05-08T12:20:59.255Z,64.2067
2023-05-08T12:22:07.230Z,62.3670
2023-05-08T12:23:15.355Z,56.1214
2023-05-08T12:24:23.670Z,57.7945
2023-05-08T12:25:31.377Z,56.8661
2023-05-08T12:26:39.522Z,54.9461
2023-05-08T12:27:47.617Z,57.4763
2023-05-08T12:28:55.627Z,59.1330
2023-05-08T12:30:03.686Z,57.0410
2023-05-08T12:31:11.925Z,53.8332
2023-05-08T12:32:19.701Z,53.6004
2023-05-08T12:33:27.754Z,54.8584
2023-05-08T12:34:36.094Z,51.4373
2023-05-08T12:35:44.010Z,47.5760
2023-05-08T12:36:52.071Z,48.7166
2023-05-08T12:38:00.283Z,45.6242
2023-05-08T12:39:08.298Z,46.9856
2023-05-08T12:40:16.300Z,48.1843
2023-05-08T12:41:24.374Z,52.5652
2023-05-08T12:42:32.432Z,56.6096
2023-05-08T12:43:40.537Z,60.2524
2023-05-08T12:44:48.538Z,64.9289
2023-05-08T12:45:56.635Z,69.5587
2023-05-08T12:47:04.586Z,73.8939
2023-05-08T12:48:12.650Z,74.2189
2023-05-08T12:49:20.668Z,76.9951
2023-05-08T12:50:28.863Z,77.6512
2023-05-08T12:51:37.119Z,75.8808
2023-05-08T12:52:44.994Z,78.3285
2023-05-08T12:53:53.224Z,78.4054
2023-05-08T12:55:01.153Z,79.0672
2023-05-08T12:56:09.155Z,79.7534
2023-05-08T12:57:17.242Z,80.9055
2023-05-08T12:58:25.426Z,84.9852
2023-05-08T12:59:33.339Z,86.6471
2023-05-08T13:00:41.470Z,86.9170
2023-05-08T13:01:49.399Z,87.9639
2023-05-08T13:02:57.658Z,89.2002
2023-05-08T13:04:05.501Z,90.4739
2023-05-08T13:05:13.672Z,90.8483
2023-05-08T13:06:21.764Z,91.1598
2023-05-08T13:07:29.793Z,90.7772
2023-05-08T13:08:37.925Z,91.2392
2023-05-08T13:09:45.987Z,91.8676
2023-05-08T13:10:54.051Z,92.9917
2023-05-08T13:12:02.062Z,93.9240
2023-05-08T13:13:10.237Z,95.3656
2023-05-08T13:14:18.176Z,93.0276
2023-05-08T13:15:26.257Z,94.3235
2023-05-08T13:16:34.219Z,92.9353
2023-05-08T13:17:42.671Z,93.2012
2023-05-08T13:18:50.376Z,92.2069
2023-05-08T13:19:59.095Z,92.4455
2023-05-08T13:21:06.613Z,91.2949
2023-05-08T13:22:14.669Z,92.2990
2023-05-08T13:23:22.796Z,92.8274
2023-05-08T13:24:30.793Z,90.7490
2023-05-08T13:25:38.860Z,89.9216
2023-05-08T13:26:46.948Z,88.3468
2023-05-08T13:27:54.979Z,89.4689
2023-05-08T13:29:03.097Z,88.1062
2023-05-08T13:30:11.358Z,89.7700
2023-05-08T13:31:19.243Z,89.7416
2023-05-08T13:32:27.141Z,88.9007
2023-05-08T13:33:35.189Z,89.3780
2023-05-08T13:34:49.793Z,90.0566
2023-05-08T13:35:56.521Z,91.4801
2023-05-08T13:37:04.408Z,92.0764
2023-05-08T13:38:12.407Z,91.6275
2023-05-08T13:39:20.540Z,90.3018
2023-05-08T13:40:28.536Z,89.2353
2023-05-08T13:41:36.630Z,90.2851
2023-05-08T13:42:44.736Z,89.4392
2023-05-08T13:43:52.845Z,88.9520
2023-05-08T13:45:00.677Z,86.7703
2023-05-08T13:46:08.792Z,86.1010
2023-05-08T13:47:16.833Z,84.8693
2023-05-08T13:48:25.026Z,85.1375
2023-05-08T13:49:33.063Z,87.2781
2023-05-08T13:50:41.118Z,84.9214
2023-05-08T13:51:54.957Z,83.4955
2023-05-08T13:53:02.164Z,81.7563
2023-05-08T13:54:10.168Z,80.1579
2023-05-08T13:55:18.231Z,81.6051
2023-05-08T13:56:26.431Z,80.7418
2023-05-08T13:57:34.399Z,80.3040
2023-05-08T13:58:42.365Z,81.1626
2023-05-08T13:59:50.383Z,83.1619
2023-05-08T14:00:58.656Z,82.3561
2023-05-08T14:02:06.695Z,81.2440
2023-05-08T14:03:14.756Z,81.0009
2023-05-08T14:04:22.765Z,80.5366
2023-05-08T14:05:30.801Z,79.8311
2023-05-08T14:06:38.947Z,77.8667
2023-05-08T14:07:47.149Z,74.5485
2023-05-08T14:08:56.939Z,71.6890
2023-05-08T14:10:07.954Z,73.5050
2023-05-08T14:11:16.149Z,69.7825
2023-05-08T14:12:23.982Z,71.3636
2023-05-08T14:13:32.156Z,70.9968
2023-05-08T14:14:40.151Z,70.7538
2023-05-08T14:15:48.297Z,70.0090
2023-05-08T14:16:56.637Z,68.5839
2023-05-08T14:18:04.500Z,64.4858
2023-05-08T14:19:12.449Z,61.8752
2023-05-08T14:20:20.534Z,63.2688
2023-05-08T14:21:28.582Z,63.7683
2023-05-08T14:22:36.682Z,65.7256
2023-05-08T14:23:44.835Z,64.4046
2023-05-08T14:24:52.787Z,64.7167
2023-05-08T14:26:00.889Z,64.6717
2023-05-08T14:27:08.849Z,68.4860
2023-05-08T14:28:16.871Z,68.0356
2023-05-08T14:29:24.908Z,68.7051
2023-05-08T14:30:33.148Z,68.7006
2023-05-08T14:31:41.396Z,69.0706
2023-05-08T14:32:49.425Z,69.1117
2023-05-08T14:33:57.415Z,71.0753
2023-05-08T14:35:05.360Z,70.6902
2023-05-08T14:36:13.404Z,70.8548
2023-05-08T14:37:21.533Z,71.7147
2023-05-08T14:38:29.567Z,70.8219
2023-05-08T14:39:37.705Z,70.1572
2023-05-08T14:40:45.818Z,71.3876
2023-05-08T14:43:06.554Z,75.3847
2023-05-08T14:44:14.820Z,76.0898
2023-05-08T14:45:22.818Z,74.8494
2023-05-08T14:46:30.946Z,74.6115
2023-05-08T14:47:38.981Z,72.1887
2023-05-08T14:48:47.058Z,74.7167
2023-05-08T14:49:55.036Z,71.4248
2023-05-08T14:51:03.096Z,72.1943
2023-05-08T14:52:11.162Z,71.5904
2023-05-08T14:53:19.333Z,72.0263
2023-05-08T14:54:27.409Z,74.6734
2023-05-08T14:55:35.444Z,76.8293
2023-05-08T14:56:47.095Z,76.2213
2023-05-08T14:57:56.358Z,78.0456
2023-05-08T14:59:04.425Z,81.0253
2023-05-08T15:00:12.855Z,81.9038
2023-05-08T15:01:20.631Z,81.1706
2023-05-08T15:02:28.766Z,83.0490
2023-05-08T15:03:37.083Z,82.3729
2023-05-08T15:04:44.703Z,81.7100
2023-05-08T15:05:52.850Z,81.3955
2023-05-08T15:07:00.859Z,81.6391
2023-05-08T15:08:08.940Z,82.4227
2023-05-08T15:09:17.224Z,81.9113
2023-05-08T15:10:24.952Z,82.7924
2023-05-08T15:11:33.051Z,86.6830
2023-05-08T15:12:41.317Z,88.2488
2023-05-08T15:13:49.266Z,89.8034
2023-05-08T15:14:57.316Z,89.2007
2023-05-08T15:16:05.442Z,89.7903
2023-05-08T15:17:13.536Z,90.0142
2023-05-08T15:18:21.600Z,92.3959
2023-05-08T15:19:29.678Z,92.5128
2023-05-08T15:20:37.673Z,93.5280
2023-05-08T15:21:45.724Z,93.1615
2023-05-08T15:22:53.956Z,93.7362
2023-05-08T15:24:01.713Z,93.2342
2023-05-08T15:25:09.801Z,93.5477
2023-05-08T15:26:17.859Z,93.2132
2023-05-08T15:27:26.206Z,94.0111
2023-05-08T15:28:34.197Z,96.2151
2023-05-08T15:29:42.221Z,95.8653
2023-05-08T15:30:50.325Z,94.0208
2023-05-08T15:31:58.402Z,94.9275
2023-05-08T15:33:06.512Z,94.1757
2023-05-08T15:34:14.621Z,92.6903
2023-05-08T15:35:22.612Z,92.1191
2023-05-08T15:36:30.772Z,92.9355
2023-05-08T15:37:38.749Z,94.7223
2023-05-08T15:38:46.633Z,95.2425
2023-05-08T15:39:54.704Z,93.7969
2023-05-08T15:41:02.752Z,92.8412
2023-05-08T15:42:11.097Z,94.2724
2023-05-08T15:43:18.999Z,94.1193
2023-05-08T15:44:37.603Z,94.0371
2023-05-08T15:45:40.038Z,94.3242
2023-05-08T15:46:48.208Z,94.2160
2023-05-08T15:47:56.290Z,94.0037
2023-05-08T15:49:04.185Z,94.3628
2023-05-08T15:50:12.432Z,94.2974
2023-05-08T15:51:20.318Z,94.0912
2023-05-08T15:52:28.249Z,93.1933
2023-05-08T15:53:36.349Z,92.1058
2023-05-08T15:54:44.350Z,91.7441
2023-05-08T15:55:52.586Z,91.3189
2023-05-08T15:57:00.638Z,90.9255
2023-05-08T15:58:08.699Z,89.3068
2023-05-08T15:59:16.788Z,88.3493
2023-05-08T16:00:27.338Z,88.6614
2023-05-08T16:01:37.795Z,84.0376
2023-05-08T16:02:45.888Z,86.7071
2023-05-08T16:03:53.848Z,84.7697
2023-05-08T16:05:02.004Z,85.6510
2023-05-08T16:06:09.935Z,82.0192
2023-05-08T16:07:17.932Z,83.1680
2023-05-08T16:08:26.012Z,86.9135
2023-05-08T16:09:34.194Z,87.6728
2023-05-08T16:10:42.462Z,88.5033
2023-05-08T16:11:50.275Z,88.3640
2023-05-08T16:12:58.389Z,88.2385
2023-05-08T16:14:06.454Z,89.0220
2023-05-08T16:15:14.678Z,87.6405
2023-05-08T16:16:22.570Z,87.7733
2023-05-08T16:17:30.713Z,87.6966
2023-05-08T16:18:38.668Z,89.3723
2023-05-08T16:19:46.729Z,89.0521
2023-05-08T16:20:54.881Z,88.1334
2023-05-08T16:22:02.818Z,87.5657
2023-05-08T16:23:10.944Z,88.0727
2023-05-08T16:24:18.892Z,86.9518
2023-05-08T16:25:27.146Z,89.0696
2023-05-08T16:26:35.201Z,88.8337
2023-05-08T16:27:43.204Z,88.0196
2023-05-08T16:28:51.253Z,88.2241
2023-05-08T16:29:59.357Z,88.6093
2023-05-08T16:31:07.418Z,89.0144
2023-05-08T16:32:15.525Z,88.8978
2023-05-08T16:33:23.584Z,89.5898
2023-05-08T16:34:31.709Z,89.0297
2023-05-08T16:35:39.716Z,87.8531
2023-05-08T16:36:47.665Z,85.8813
2023-05-08T16:37:55.713Z,85.5094
2023-05-08T16:39:03.983Z,85.7033
2023-05-08T16:40:11.918Z,84.1476
2023-05-08T16:41:19.977Z,84.3483
2023-05-08T16:42:28.093Z,86.1304
2023-05-08T16:43:36.108Z,86.8760
2023-05-08T16:44:44.218Z,87.8023
2023-05-08T16:45:52.227Z,88.1230
2023-05-08T16:47:00.533Z,88.4793
2023-05-08T16:48:08.485Z,86.9444
2023-05-08T16:49:16.429Z,85.5168
2023-05-08T16:50:24.612Z,87.1621
2023-05-08T16:51:32.481Z,88.5867
2023-05-08T16:52:40.524Z,89.9821
2023-05-08T16:53:48.675Z,90.5881
2023-05-08T16:54:56.632Z,91.1751
2023-05-08T16:56:04.763Z,90.1390
2023-05-08T16:57:12.831Z,87.6472
2023-05-08T16:58:20.863Z,90.3434
2023-05-08T16:59:29.010Z,90.1750
2023-05-08T17:00:37.063Z,89.0354
2023-05-08T17:01:45.363Z,89.9508
2023-05-08T17:02:53.168Z,91.9944
2023-05-08T17:04:01.247Z,91.4559
2023-05-08T17:05:09.305Z,92.5485
2023-05-08T17:06:17.339Z,92.1661
2023-05-08T17:07:25.310Z,92.1289
2023-05-08T17:08:33.372Z,93.0934
2023-05-08T17:09:41.481Z,93.3349
2023-05-08T17:10:49.641Z,93.4311
2023-05-08T17:11:57.681Z,93.1399
2023-05-08T17:13:05.764Z,92.6938
2023-05-08T17:14:13.862Z,92.6428